Time,TemperatureF,DewpointF,PressureIn,WindDirection,WindDirectionDegrees,WindSpeedMPH,WindSpeedGustMPH,Humidity,HourlyPrecipIn,Conditions,Clouds,dailyrainin,SoftwareType,DateUTC
2013-07-10 00:02:00,57.4,52.0,29.96,SE,134,0.0,0.0,83,0.00,,,0.00,weatherlink.com 1.10,2013-07-10 07:02:00,
2013-07-10 00:17:00,56.5,52.0,29.97,SE,143,0.0,0.0,84,0.00,,,0.00,weatherlink.com 1.10,2013-07-10 07:17:00,
2013-07-10 00:33:00,56.2,52.0,29.97,SE,143,0.0,0.0,85,0.00,,,0.00,weatherlink.com 1.10,2013-07-10 07:33:00,
2013-07-10 00:48:00,55.8,51.0,29.97,SE,143,0.0,0.0,85,0.00,,,0.00,weatherlink.com 1.10,2013-07-10 07:48:00,
2013-07-10 01:03:00,55.5,51.0,29.97,SE,142,0.0,0.0,86,0.00,,,0.00,weatherlink.com 1.10,2013-07-10 08:03:00,
2013-07-10 01:18:00,55.0,51.0,29.96,SE,143,0.0,0.0,86,0.00,,,0.00,weatherlink.com 1.10,2013-07-10 08:18:00,
2013-07-10 01:33:00,54.5,51.0,29.96,SE,142,0.0,0.0,88,0.00,,,0.00,weatherlink.com 1.10,2013-07-10 08:33:00,
2013-07-10 01:48:00,54.0,51.0,29.96,SE,142,0.0,0.0,88,0.00,,,0.00,weatherlink.com 1.10,2013-07-10 08:48:00,
2013-07-10 02:03:00,53.7,50.0,29.95,SE,142,0.0,0.0,88,0.00,,,0.00,weatherlink.com 1.10,2013-07-10 09:03:00,
2013-07-10 02:18:00,53.4,50.0,29.95,SE,142,0.0,0.0,89,0.00,,,0.00,weatherlink.com 1.10,2013-07-10 09:18:00,
2013-07-10 02:33:00,53.0,50.0,29.95,SE,142,0.0,0.0,90,0.00,,,0.00,weatherlink.com 1.10,2013-07-10 09:33:00,
2013-07-10 02:48:00,52.7,50.0,29.95,SE,142,0.0,0.0,90,0.00,,,0.00,weatherlink.com 1.10,2013-07-10 09:48:00,
2013-07-10 03:03:00,52.5,50.0,29.95,SE,142,0.0,0.0,90,0.00,,,0.00,weatherlink.com 1.10,2013-07-10 10:03:00,
2013-07-10 03:18:00,52.3,50.0,29.96,SE,142,0.0,0.0,90,0.00,,,0.00,weatherlink.com 1.10,2013-07-10 10:18:00,
2013-07-10 03:33:00,52.0,50.0,29.95,SE,142,0.0,0.0,91,0.00,,,0.00,weatherlink.com 1.10,2013-07-10 10:33:00,
2013-07-10 03:48:00,51.9,49.0,29.95,SE,142,0.0,0.0,91,0.00,,,0.00,weatherlink.com 1.10,2013-07-10 10:48:00,
2013-07-10 04:03:00,51.7,50.0,29.96,SE,142,0.0,0.0,92,0.00,,,0.00,weatherlink.com 1.10,2013-07-10 11:03:00,
2013-07-10 04:18:00,51.8,50.0,29.96,SE,142,0.0,0.0,93,0.00,,,0.00,weatherlink.com 1.10,2013-07-10 11:18:00,
2013-07-10 04:33:00,51.8,50.0,29.96,SE,142,0.0,0.0,93,0.00,,,0.00,weatherlink.com 1.10,2013-07-10 11:33:00,
2013-07-10 04:48:00,51.8,50.0,29.97,SE,143,0.0,0.0,93,0.00,,,0.00,weatherlink.com 1.10,2013-07-10 11:48:00,
2013-07-10 05:03:00,51.7,50.0,29.97,SE,142,0.0,0.0,93,0.00,,,0.00,weatherlink.com 1.10,2013-07-10 12:03:00,
2013-07-10 05:18:00,51.7,50.0,29.97,SE,142,0.0,0.0,93,0.00,,,0.00,weatherlink.com 1.10,2013-07-10 12:18:00,
2013-07-10 05:33:00,51.7,50.0,29.96,SE,142,0.0,0.0,93,0.00,,,0.00,weatherlink.com 1.10,2013-07-10 12:33:00,
2013-07-10 05:48:00,51.7,50.0,29.97,SE,142,0.0,0.0,93,0.00,,,0.00,weatherlink.com 1.10,2013-07-10 12:48:00,
2013-07-10 06:03:00,51.8,50.0,29.97,SE,142,0.0,0.0,93,0.00,,,0.00,weatherlink.com 1.10,2013-07-10 13:03:00,
2013-07-10 06:18:00,51.6,50.0,29.97,SE,143,0.0,0.0,93,0.00,,,0.00,weatherlink.com 1.10,2013-07-10 13:18:00,
2013-07-10 06:33:00,51.6,50.0,29.97,SE,143,0.0,0.0,93,0.00,,,0.00,weatherlink.com 1.10,2013-07-10 13:33:00,
2013-07-10 06:48:00,51.6,50.0,29.97,SE,142,0.0,0.0,93,0.00,,,0.00,weatherlink.com 1.10,2013-07-10 13:48:00,
2013-07-10 07:03:00,51.5,50.0,29.97,SSE,149,0.0,0.0,93,0.00,,,0.00,weatherlink.com 1.10,2013-07-10 14:03:00,
2013-07-10 07:18:00,51.6,50.0,29.98,South,183,0.0,0.0,93,0.00,,,0.00,weatherlink.com 1.10,2013-07-10 14:18:00,
2013-07-10 07:33:00,51.6,50.0,29.98,South,183,0.0,0.0,93,0.00,,,0.00,weatherlink.com 1.10,2013-07-10 14:33:00,
2013-07-10 07:48:00,51.8,50.0,29.98,SSE,159,0.0,0.0,93,0.00,,,0.00,weatherlink.com 1.10,2013-07-10 14:48:00,
2013-07-10 08:03:00,52.0,50.0,29.98,SE,142,0.0,0.0,93,0.00,,,0.00,weatherlink.com 1.10,2013-07-10 15:03:00,
2013-07-10 08:18:00,52.5,50.0,29.98,SE,143,0.0,0.0,92,0.00,,,0.00,weatherlink.com 1.10,2013-07-10 15:18:00,
2013-07-10 08:33:00,52.9,51.0,29.98,SE,141,0.0,0.0,92,0.00,,,0.00,weatherlink.com 1.10,2013-07-10 15:33:00,
2013-07-10 08:48:00,53.1,51.0,29.98,South,172,0.0,0.0,92,0.00,,,0.00,weatherlink.com 1.10,2013-07-10 15:48:00,
2013-07-10 09:03:00,53.4,51.0,29.98,SE,142,0.0,0.0,91,0.00,,,0.00,weatherlink.com 1.10,2013-07-10 16:03:00,
2013-07-10 09:18:00,54.1,52.0,29.98,SE,142,0.0,0.0,91,0.00,,,0.00,weatherlink.com 1.10,2013-07-10 16:18:00,
2013-07-10 09:33:00,55.1,52.0,29.97,SE,142,0.0,0.0,90,0.00,,,0.00,weatherlink.com 1.10,2013-07-10 16:33:00,
2013-07-10 09:48:00,56.4,53.0,29.96,SE,136,0.0,0.0,88,0.00,,,0.00,weatherlink.com 1.10,2013-07-10 16:48:00,
2013-07-10 10:03:00,58.2,54.0,29.96,SE,127,0.0,0.0,85,0.00,,,0.00,weatherlink.com 1.10,2013-07-10 17:03:00,
2013-07-10 10:18:00,60.4,55.0,29.95,SW,218,0.0,0.0,82,0.00,,,0.00,weatherlink.com 1.10,2013-07-10 17:18:00,
2013-07-10 10:34:00,62.1,56.0,29.95,SE,125,0.0,0.0,79,0.00,,,0.00,weatherlink.com 1.10,2013-07-10 17:34:00,
2013-07-10 10:49:00,63.9,56.0,29.94,ESE,107,0.0,0.0,76,0.00,,,0.00,weatherlink.com 1.10,2013-07-10 17:49:00,
2013-07-10 11:04:00,65.2,57.0,29.94,SSE,165,0.0,0.0,74,0.00,,,0.00,weatherlink.com 1.10,2013-07-10 18:04:00,
2013-07-10 11:19:00,66.9,57.0,29.94,ESE,105,0.0,0.0,71,0.00,,,0.00,weatherlink.com 1.10,2013-07-10 18:19:00,
2013-07-10 11:34:00,68.2,58.0,29.94,SSE,147,0.0,0.0,69,0.00,,,0.00,weatherlink.com 1.10,2013-07-10 18:34:00,
2013-07-10 11:49:00,69.9,58.0,29.93,NNE,19,0.0,0.0,65,0.00,,,0.00,weatherlink.com 1.10,2013-07-10 18:49:00,
2013-07-10 12:04:00,71.8,58.0,29.93,SSE,153,0.0,0.0,63,0.00,,,0.00,weatherlink.com 1.10,2013-07-10 19:04:00,
2013-07-10 12:19:00,73.8,60.0,29.92,SSE,162,0.0,1.0,62,0.00,,,0.00,weatherlink.com 1.10,2013-07-10 19:19:00,
2013-07-10 12:34:00,75.8,59.0,29.92,SW,214,0.0,1.0,56,0.00,,,0.00,weatherlink.com 1.10,2013-07-10 19:34:00,
2013-07-10 12:49:00,77.0,60.0,29.92,SW,225,0.0,0.0,55,0.00,,,0.00,weatherlink.com 1.10,2013-07-10 19:49:00,
2013-07-10 13:04:00,78.2,60.0,29.91,SW,226,0.0,0.0,53,0.00,,,0.00,weatherlink.com 1.10,2013-07-10 20:04:00,
2013-07-10 13:19:00,79.0,60.0,29.92,SW,216,1.0,2.0,53,0.00,,,0.00,weatherlink.com 1.10,2013-07-10 20:19:00,
2013-07-10 13:34:00,78.5,60.0,29.92,SW,221,0.0,3.0,54,0.00,,,0.00,weatherlink.com 1.10,2013-07-10 20:34:00,
2013-07-10 13:49:00,77.8,60.0,29.92,SSW,198,1.0,3.0,54,0.00,,,0.00,weatherlink.com 1.10,2013-07-10 20:49:00,
2013-07-10 14:04:00,76.9,59.0,29.92,SSW,213,1.0,3.0,55,0.00,,,0.00,weatherlink.com 1.10,2013-07-10 21:04:00,
2013-07-10 14:19:00,76.1,59.0,29.92,WNW,282,0.0,4.0,55,0.00,,,0.00,weatherlink.com 1.10,2013-07-10 21:19:00,
2013-07-10 14:34:00,75.6,58.0,29.92,SW,218,2.0,2.0,54,0.00,,,0.00,weatherlink.com 1.10,2013-07-10 21:34:00,
2013-07-10 14:49:00,75.1,56.0,29.92,SW,219,1.0,3.0,51,0.00,,,0.00,weatherlink.com 1.10,2013-07-10 21:49:00,
2013-07-10 15:04:00,73.9,55.0,29.92,WSW,257,0.0,2.0,51,0.00,,,0.00,weatherlink.com 1.10,2013-07-10 22:04:00,
2013-07-10 15:19:00,73.9,54.0,29.91,SSW,198,0.0,2.0,50,0.00,,,0.00,weatherlink.com 1.10,2013-07-10 22:19:00,
2013-07-10 15:35:00,74.2,53.0,29.91,WNW,292,0.0,1.0,48,0.00,,,0.00,weatherlink.com 1.10,2013-07-10 22:35:00,
2013-07-10 15:50:00,73.4,53.0,29.90,SW,228,0.0,1.0,49,0.00,,,0.00,weatherlink.com 1.10,2013-07-10 22:50:00,
2013-07-10 16:05:00,73.2,53.0,29.90,WSW,255,1.0,2.0,50,0.00,,,0.00,weatherlink.com 1.10,2013-07-10 23:05:00,
2013-07-10 16:20:00,72.6,52.0,29.90,SW,226,1.0,1.0,49,0.00,,,0.00,weatherlink.com 1.10,2013-07-10 23:20:00,
2013-07-10 16:35:00,71.8,53.0,29.89,WSW,244,0.0,1.0,52,0.00,,,0.00,weatherlink.com 1.10,2013-07-10 23:35:00,
2013-07-10 16:50:00,71.5,52.0,29.89,West,273,0.0,2.0,51,0.00,,,0.00,weatherlink.com 1.10,2013-07-10 23:50:00,
2013-07-10 17:05:00,71.1,52.0,29.89,WSW,255,0.0,0.0,52,0.00,,,0.00,weatherlink.com 1.10,2013-07-11 00:05:00,
2013-07-10 17:20:00,70.4,53.0,29.89,SW,229,1.0,2.0,54,0.00,,,0.00,weatherlink.com 1.10,2013-07-11 00:20:00,
2013-07-10 17:35:00,69.0,53.0,29.89,West,267,0.0,0.0,57,0.00,,,0.00,weatherlink.com 1.10,2013-07-11 00:35:00,
2013-07-10 17:50:00,67.7,53.0,29.89,SW,236,0.0,0.0,59,0.00,,,0.00,weatherlink.com 1.10,2013-07-11 00:50:00,
2013-07-10 18:05:00,66.3,52.0,29.89,SW,235,0.0,0.0,61,0.00,,,0.00,weatherlink.com 1.10,2013-07-11 01:05:00,
2013-07-10 18:20:00,65.0,52.0,29.89,SW,231,0.0,0.0,63,0.00,,,0.00,weatherlink.com 1.10,2013-07-11 01:20:00,
2013-07-10 18:35:00,64.1,52.0,29.89,SW,225,0.0,0.0,65,0.00,,,0.00,weatherlink.com 1.10,2013-07-11 01:35:00,
2013-07-10 18:50:00,63.2,52.0,29.89,SW,230,0.0,0.0,66,0.00,,,0.00,weatherlink.com 1.10,2013-07-11 01:50:00,
2013-07-10 19:05:00,62.3,52.0,29.89,West,269,0.0,0.0,69,0.00,,,0.00,weatherlink.com 1.10,2013-07-11 02:05:00,
2013-07-10 19:20:00,61.5,52.0,29.89,WSW,257,0.0,0.0,71,0.00,,,0.00,weatherlink.com 1.10,2013-07-11 02:20:00,
2013-07-10 19:35:00,60.4,52.0,29.89,WSW,255,0.0,0.0,73,0.00,,,0.00,weatherlink.com 1.10,2013-07-11 02:35:00,
2013-07-10 19:50:00,59.7,52.0,29.89,WSW,256,0.0,0.0,75,0.00,,,0.00,weatherlink.com 1.10,2013-07-11 02:50:00,
2013-07-10 20:05:00,59.1,52.0,29.90,WSW,256,0.0,0.0,76,0.00,,,0.00,weatherlink.com 1.10,2013-07-11 03:05:00,
2013-07-10 20:20:00,58.1,51.0,29.90,WSW,255,0.0,0.0,78,0.00,,,0.00,weatherlink.com 1.10,2013-07-11 03:20:00,
2013-07-10 20:35:00,57.3,51.0,29.91,WSW,255,0.0,0.0,80,0.00,,,0.00,weatherlink.com 1.10,2013-07-11 03:35:00,
2013-07-10 20:50:00,56.5,51.0,29.91,WSW,250,0.0,0.0,81,0.00,,,0.00,weatherlink.com 1.10,2013-07-11 03:50:00,
2013-07-10 21:05:00,55.5,50.0,29.91,WSW,245,0.0,0.0,83,0.00,,,0.00,weatherlink.com 1.10,2013-07-11 04:05:00,
2013-07-10 21:20:00,54.9,50.0,29.91,WSW,245,0.0,0.0,84,0.00,,,0.00,weatherlink.com 1.10,2013-07-11 04:20:00,
2013-07-10 21:35:00,54.4,50.0,29.92,WSW,245,0.0,0.0,85,0.00,,,0.00,weatherlink.com 1.10,2013-07-11 04:35:00,
2013-07-10 21:50:00,53.8,50.0,29.92,WSW,245,0.0,0.0,86,0.00,,,0.00,weatherlink.com 1.10,2013-07-11 04:50:00,
2013-07-10 22:05:00,53.3,50.0,29.93,WSW,245,0.0,0.0,87,0.00,,,0.00,weatherlink.com 1.10,2013-07-11 05:05:00,
2013-07-10 22:20:00,52.8,49.0,29.93,WSW,246,0.0,0.0,88,0.00,,,0.00,weatherlink.com 1.10,2013-07-11 05:20:00,
2013-07-10 22:35:00,52.6,50.0,29.93,WSW,245,0.0,0.0,89,0.00,,,0.00,weatherlink.com 1.10,2013-07-11 05:35:00,
2013-07-10 22:50:00,52.6,50.0,29.94,WSW,245,0.0,0.0,90,0.00,,,0.00,weatherlink.com 1.10,2013-07-11 05:50:00,
2013-07-10 23:05:00,52.7,50.0,29.94,WSW,245,0.0,0.0,90,0.00,,,0.00,weatherlink.com 1.10,2013-07-11 06:05:00,
2013-07-10 23:20:00,52.6,50.0,29.94,WSW,243,0.0,0.0,90,0.00,,,0.00,weatherlink.com 1.10,2013-07-11 06:20:00,
2013-07-10 23:35:00,52.5,50.0,29.94,WSW,244,0.0,0.0,90,0.00,,,0.00,weatherlink.com 1.10,2013-07-11 06:35:00,
2013-07-10 23:50:00,52.4,50.0,29.94,WSW,243,0.0,0.0,90,0.00,,,0.00,weatherlink.com 1.10,2013-07-11 06:50:00,